createdAt,value
2018-07-03T07:44:17.612Z,17.80
2018-07-03T07:54:23.263Z,17.80
2018-07-03T08:14:32.692Z,17.80
2018-07-03T08:24:37.423Z,17.80
2018-07-03T08:34:42.169Z,17.80
2018-07-03T08:44:46.951Z,17.80
2018-07-03T08:54:51.716Z,17.80
2018-07-03T09:04:56.696Z,17.90
2018-07-03T09:15:01.482Z,17.90
2018-07-03T09:25:06.347Z,17.90
2018-07-03T09:35:11.174Z,17.90
2018-07-03T09:45:16.009Z,17.90
2018-07-03T09:55:20.838Z,17.90
2018-07-03T10:05:25.491Z,17.90
2018-07-03T10:25:34.990Z,17.90
2018-07-03T10:35:40.234Z,17.90
2018-07-03T10:45:45.448Z,17.90
2018-07-03T10:55:50.193Z,17.90
2018-07-03T11:05:54.961Z,17.90
2018-07-03T11:16:01.017Z,17.90
2018-07-03T11:26:05.722Z,17.90
2018-07-03T11:36:10.531Z,17.90
2018-07-03T11:46:16.345Z,17.90
2018-07-03T12:06:25.808Z,18.00
2018-07-03T12:16:30.575Z,18.00
2018-07-03T12:26:37.117Z,18.00
2018-07-03T12:36:41.780Z,18.00
2018-07-03T12:46:47.158Z,18.00
2018-07-03T12:56:52.158Z,18.00
2018-07-03T13:06:56.992Z,18.00
2018-07-03T13:17:01.712Z,18.10
2018-07-03T13:27:06.404Z,18.10
2018-07-03T13:37:11.279Z,18.10
2018-07-03T13:47:16.062Z,18.20
2018-07-03T13:57:20.764Z,18.20
2018-07-03T14:07:25.462Z,18.20
2018-07-03T14:17:31.012Z,18.20
2018-07-03T14:27:35.738Z,18.30
2018-07-03T14:37:40.536Z,18.30
2018-07-03T14:47:45.323Z,18.30
2018-07-03T14:57:50.189Z,18.30
2018-07-03T15:07:54.980Z,18.40
2018-07-03T15:17:59.688Z,18.40
2018-07-03T15:28:04.527Z,18.40
2018-07-03T15:38:09.333Z,18.40
2018-07-03T15:48:14.575Z,18.50
2018-07-03T15:58:19.322Z,18.50
2018-07-03T16:08:40.787Z,18.50
2018-07-03T16:28:50.019Z,18.60
2018-07-03T16:38:54.853Z,18.60
2018-07-03T16:48:59.695Z,18.60
2018-07-03T16:59:04.563Z,18.60
2018-07-03T17:19:20.732Z,18.60
2018-07-03T17:29:26.553Z,18.70
2018-07-03T17:40:50.826Z,18.70
2018-07-03T17:50:55.765Z,18.70
2018-07-03T18:01:01.643Z,18.70
2018-07-03T18:21:11.595Z,18.80
2018-07-03T18:51:25.337Z,18.80
2018-07-03T19:01:30.264Z,18.80
2018-07-03T19:11:35.319Z,18.80
2018-07-03T19:21:40.131Z,18.80
2018-07-03T19:31:44.743Z,18.80
2018-07-03T19:41:49.715Z,18.80
2018-07-03T19:51:54.720Z,18.80
2018-07-03T20:02:01.524Z,18.80
2018-07-03T20:12:06.283Z,18.80
2018-07-03T20:22:11.070Z,18.80
2018-07-03T20:32:16.752Z,18.80
2018-07-03T20:42:21.612Z,18.80
2018-07-03T20:52:26.461Z,18.80
2018-07-03T21:02:31.439Z,18.80
2018-07-03T21:12:36.408Z,18.70
2018-07-03T21:22:41.212Z,18.80
2018-07-03T21:32:46.554Z,18.80
2018-07-03T21:42:51.372Z,18.80
2018-07-03T21:52:56.372Z,18.70
2018-07-03T22:03:01.002Z,18.70
2018-07-03T22:13:05.686Z,18.70
2018-07-03T22:23:10.288Z,18.70
2018-07-03T22:33:14.932Z,18.70
2018-07-03T22:43:20.273Z,18.70
2018-07-03T22:53:25.039Z,18.70
